sensor_id;sensor_type;location;lat;lon;timestamp;P1;durP1;ratioP1;P2;durP2;ratioP2
72517;SDS011;60540;51.178;6.738;2024-02-28T00:02:04;25.98;;;10.15;;
72517;SDS011;60540;51.178;6.738;2024-02-28T00:04:50;23.95;;;10.90;;
72517;SDS011;60540;51.178;6.738;2024-02-28T00:07:34;28.17;;;11.38;;
72517;SDS011;60540;51.178;6.738;2024-02-28T00:10:18;23.33;;;10.68;;
72517;SDS011;60540;51.178;6.738;2024-02-28T00:13:04;25.08;;;11.38;;
72517;SDS011;60540;51.178;6.738;2024-02-28T00:15:48;24.92;;;11.02;;
72517;SDS011;60540;51.178;6.738;2024-02-28T00:18:33;25.20;;;10.70;;
72517;SDS011;60540;51.178;6.738;2024-02-28T00:21:17;25.73;;;10.23;;
72517;SDS011;60540;51.178;6.738;2024-02-28T00:24:02;24.77;;;11.45;;
72517;SDS011;60540;51.178;6.738;2024-02-28T00:26:46;23.90;;;10.07;;
72517;SDS011;60540;51.178;6.738;2024-02-28T00:29:31;23.27;;;10.40;;
72517;SDS011;60540;51.178;6.738;2024-02-28T00:32:15;26.55;;;10.50;;
72517;SDS011;60540;51.178;6.738;2024-02-28T00:34:59;25.85;;;11.07;;
72517;SDS011;60540;51.178;6.738;2024-02-28T00:37:43;25.58;;;11.05;;
72517;SDS011;60540;51.178;6.738;2024-02-28T00:40:28;23.58;;;11.02;;
72517;SDS011;60540;51.178;6.738;2024-02-28T00:43:12;24.35;;;10.32;;
72517;SDS011;60540;51.178;6.738;2024-02-28T00:45:56;24.75;;;10.90;;
72517;SDS011;60540;51.178;6.738;2024-02-28T00:48:41;22.80;;;10.30;;
72517;SDS011;60540;51.178;6.738;2024-02-28T00:51:26;27.08;;;10.63;;
72517;SDS011;60540;51.178;6.738;2024-02-28T00:54:10;25.83;;;10.70;;
72517;SDS011;60540;51.178;6.738;2024-02-28T00:56:54;29.90;;;12.40;;
72517;SDS011;60540;51.178;6.738;2024-02-28T00:59:38;29.65;;;11.48;;
72517;SDS011;60540;51.178;6.738;2024-02-28T01:02:23;24.95;;;11.40;;
72517;SDS011;60540;51.178;6.738;2024-02-28T01:05:07;26.58;;;11.85;;
72517;SDS011;60540;51.178;6.738;2024-02-28T01:07:51;25.55;;;10.80;;
72517;SDS011;60540;51.178;6.738;2024-02-28T01:10:35;22.15;;;9.82;;
72517;SDS011;60540;51.178;6.738;2024-02-28T01:13:20;22.27;;;9.63;;
72517;SDS011;60540;51.178;6.738;2024-02-28T01:16:04;22.80;;;10.93;;
72517;SDS011;60540;51.178;6.738;2024-02-28T01:18:49;23.27;;;9.65;;
72517;SDS011;60540;51.178;6.738;2024-02-28T01:21:33;28.05;;;11.93;;
72517;SDS011;60540;51.178;6.738;2024-02-28T01:24:17;24.25;;;10.98;;
72517;SDS011;60540;51.178;6.738;2024-02-28T01:27:02;23.83;;;10.38;;
72517;SDS011;60540;51.178;6.738;2024-02-28T01:29:47;28.52;;;10.50;;
72517;SDS011;60540;51.178;6.738;2024-02-28T01:32:31;25.10;;;10.57;;
72517;SDS011;60540;51.178;6.738;2024-02-28T01:35:16;27.67;;;11.25;;
72517;SDS011;60540;51.178;6.738;2024-02-28T01:38:00;24.30;;;10.90;;
72517;SDS011;60540;51.178;6.738;2024-02-28T01:40:47;22.00;;;9.30;;
72517;SDS011;60540;51.178;6.738;2024-02-28T01:43:31;24.08;;;11.70;;
72517;SDS011;60540;51.178;6.738;2024-02-28T01:46:23;27.08;;;11.02;;
72517;SDS011;60540;51.178;6.738;2024-02-28T01:49:09;24.55;;;10.27;;
72517;SDS011;60540;51.178;6.738;2024-02-28T01:51:53;22.52;;;9.45;;
72517;SDS011;60540;51.178;6.738;2024-02-28T01:54:38;28.65;;;11.38;;
72517;SDS011;60540;51.178;6.738;2024-02-28T01:57:22;21.58;;;10.25;;
72517;SDS011;60540;51.178;6.738;2024-02-28T02:00:07;23.40;;;9.90;;
72517;SDS011;60540;51.178;6.738;2024-02-28T02:02:54;23.50;;;10.55;;
72517;SDS011;60540;51.178;6.738;2024-02-28T02:05:39;26.40;;;11.57;;
72517;SDS011;60540;51.178;6.738;2024-02-28T02:08:25;27.63;;;11.02;;
72517;SDS011;60540;51.178;6.738;2024-02-28T02:11:09;26.08;;;10.20;;
72517;SDS011;60540;51.178;6.738;2024-02-28T02:13:54;26.35;;;11.20;;
72517;SDS011;60540;51.178;6.738;2024-02-28T02:16:38;21.77;;;9.98;;
72517;SDS011;60540;51.178;6.738;2024-02-28T02:19:22;24.48;;;11.20;;
72517;SDS011;60540;51.178;6.738;2024-02-28T02:22:07;24.85;;;10.88;;
72517;SDS011;60540;51.178;6.738;2024-02-28T02:24:52;25.55;;;11.20;;
72517;SDS011;60540;51.178;6.738;2024-02-28T02:27:36;24.98;;;10.90;;
72517;SDS011;60540;51.178;6.738;2024-02-28T02:30:21;20.40;;;9.55;;
72517;SDS011;60540;51.178;6.738;2024-02-28T02:33:05;22.48;;;9.55;;
72517;SDS011;60540;51.178;6.738;2024-02-28T02:35:51;21.33;;;10.18;;
72517;SDS011;60540;51.178;6.738;2024-02-28T02:38:38;19.85;;;9.40;;
72517;SDS011;60540;51.178;6.738;2024-02-28T02:41:22;22.13;;;10.25;;
72517;SDS011;60540;51.178;6.738;2024-02-28T02:44:07;21.85;;;9.18;;
72517;SDS011;60540;51.178;6.738;2024-02-28T02:46:53;23.23;;;10.98;;
72517;SDS011;60540;51.178;6.738;2024-02-28T02:49:37;25.92;;;10.35;;
72517;SDS011;60540;51.178;6.738;2024-02-28T02:52:21;28.90;;;12.77;;
72517;SDS011;60540;51.178;6.738;2024-02-28T02:55:06;30.40;;;11.45;;
72517;SDS011;60540;51.178;6.738;2024-02-28T02:57:50;29.00;;;11.93;;
72517;SDS011;60540;51.178;6.738;2024-02-28T03:00:34;28.45;;;12.02;;
72517;SDS011;60540;51.178;6.738;2024-02-28T03:03:18;26.83;;;11.77;;
72517;SDS011;60540;51.178;6.738;2024-02-28T03:06:03;31.17;;;12.52;;
72517;SDS011;60540;51.178;6.738;2024-02-28T03:08:49;27.13;;;12.35;;
72517;SDS011;60540;51.178;6.738;2024-02-28T03:11:33;30.05;;;12.00;;
72517;SDS011;60540;51.178;6.738;2024-02-28T03:14:19;32.00;;;12.63;;
72517;SDS011;60540;51.178;6.738;2024-02-28T03:17:05;31.48;;;13.57;;
72517;SDS011;60540;51.178;6.738;2024-02-28T03:19:50;32.42;;;13.60;;
72517;SDS011;60540;51.178;6.738;2024-02-28T03:22:34;28.20;;;12.35;;
72517;SDS011;60540;51.178;6.738;2024-02-28T03:25:18;29.63;;;12.88;;
72517;SDS011;60540;51.178;6.738;2024-02-28T03:28:02;28.50;;;10.68;;
72517;SDS011;60540;51.178;6.738;2024-02-28T03:30:47;28.42;;;12.60;;
72517;SDS011;60540;51.178;6.738;2024-02-28T03:33:31;29.83;;;12.20;;
72517;SDS011;60540;51.178;6.738;2024-02-28T03:36:16;37.22;;;13.82;;
72517;SDS011;60540;51.178;6.738;2024-02-28T03:39:00;32.88;;;14.48;;
72517;SDS011;60540;51.178;6.738;2024-02-28T03:41:45;32.65;;;13.07;;
72517;SDS011;60540;51.178;6.738;2024-02-28T03:44:29;34.95;;;14.85;;
72517;SDS011;60540;51.178;6.738;2024-02-28T03:47:13;35.75;;;16.00;;
72517;SDS011;60540;51.178;6.738;2024-02-28T03:49:57;44.22;;;16.13;;
72517;SDS011;60540;51.178;6.738;2024-02-28T03:52:43;39.65;;;15.68;;
72517;SDS011;60540;51.178;6.738;2024-02-28T03:55:27;40.92;;;17.20;;
72517;SDS011;60540;51.178;6.738;2024-02-28T03:58:12;39.60;;;15.05;;
72517;SDS011;60540;51.178;6.738;2024-02-28T04:00:56;38.33;;;15.00;;
72517;SDS011;60540;51.178;6.738;2024-02-28T04:03:40;32.22;;;13.68;;
72517;SDS011;60540;51.178;6.738;2024-02-28T04:06:25;40.45;;;17.13;;
72517;SDS011;60540;51.178;6.738;2024-02-28T04:09:09;40.33;;;16.40;;
72517;SDS011;60540;51.178;6.738;2024-02-28T04:11:53;42.30;;;16.63;;
72517;SDS011;60540;51.178;6.738;2024-02-28T04:14:38;46.45;;;18.80;;
72517;SDS011;60540;51.178;6.738;2024-02-28T04:17:23;45.60;;;17.65;;
72517;SDS011;60540;51.178;6.738;2024-02-28T04:20:13;39.35;;;16.70;;
72517;SDS011;60540;51.178;6.738;2024-02-28T04:22:58;43.20;;;16.58;;
72517;SDS011;60540;51.178;6.738;2024-02-28T04:25:42;36.22;;;16.08;;
72517;SDS011;60540;51.178;6.738;2024-02-28T04:28:26;46.97;;;17.35;;
72517;SDS011;60540;51.178;6.738;2024-02-28T04:31:11;46.70;;;18.17;;
72517;SDS011;60540;51.178;6.738;2024-02-28T04:33:55;45.88;;;16.85;;
72517;SDS011;60540;51.178;6.738;2024-02-28T04:36:39;38.97;;;17.98;;
72517;SDS011;60540;51.178;6.738;2024-02-28T04:39:23;50.08;;;17.73;;
72517;SDS011;60540;51.178;6.738;2024-02-28T04:42:08;40.28;;;15.23;;
72517;SDS011;60540;51.178;6.738;2024-02-28T04:44:52;49.35;;;17.23;;
72517;SDS011;60540;51.178;6.738;2024-02-28T04:47:37;41.05;;;16.90;;
72517;SDS011;60540;51.178;6.738;2024-02-28T04:50:21;50.60;;;19.35;;
72517;SDS011;60540;51.178;6.738;2024-02-28T04:53:06;49.17;;;18.63;;
72517;SDS011;60540;51.178;6.738;2024-02-28T04:55:50;52.63;;;18.80;;
72517;SDS011;60540;51.178;6.738;2024-02-28T04:58:35;48.72;;;17.48;;
72517;SDS011;60540;51.178;6.738;2024-02-28T05:01:22;48.63;;;18.02;;
72517;SDS011;60540;51.178;6.738;2024-02-28T05:04:06;51.88;;;17.48;;
72517;SDS011;60540;51.178;6.738;2024-02-28T05:06:51;46.75;;;16.70;;
72517;SDS011;60540;51.178;6.738;2024-02-28T05:09:36;51.92;;;17.20;;
72517;SDS011;60540;51.178;6.738;2024-02-28T05:12:20;47.15;;;16.90;;
72517;SDS011;60540;51.178;6.738;2024-02-28T05:15:04;46.70;;;16.65;;
72517;SDS011;60540;51.178;6.738;2024-02-28T05:17:51;51.80;;;17.25;;
72517;SDS011;60540;51.178;6.738;2024-02-28T05:20:36;47.33;;;16.88;;
72517;SDS011;60540;51.178;6.738;2024-02-28T05:23:20;44.97;;;15.63;;
72517;SDS011;60540;51.178;6.738;2024-02-28T05:26:04;46.85;;;16.92;;
72517;SDS011;60540;51.178;6.738;2024-02-28T05:31:34;46.10;;;16.58;;
72517;SDS011;60540;51.178;6.738;2024-02-28T05:34:20;52.03;;;17.65;;
72517;SDS011;60540;51.178;6.738;2024-02-28T05:37:04;52.78;;;17.40;;
72517;SDS011;60540;51.178;6.738;2024-02-28T05:39:48;52.38;;;19.65;;
72517;SDS011;60540;51.178;6.738;2024-02-28T05:42:33;53.35;;;18.67;;
72517;SDS011;60540;51.178;6.738;2024-02-28T05:45:18;53.20;;;17.55;;
72517;SDS011;60540;51.178;6.738;2024-02-28T05:48:03;56.90;;;19.10;;
72517;SDS011;60540;51.178;6.738;2024-02-28T05:50:47;48.78;;;17.40;;
72517;SDS011;60540;51.178;6.738;2024-02-28T05:53:31;54.83;;;19.70;;
72517;SDS011;60540;51.178;6.738;2024-02-28T05:56:22;51.20;;;18.30;;
72517;SDS011;60540;51.178;6.738;2024-02-28T05:59:06;49.42;;;17.25;;
72517;SDS011;60540;51.178;6.738;2024-02-28T06:01:50;50.30;;;18.92;;
72517;SDS011;60540;51.178;6.738;2024-02-28T06:04:34;46.22;;;17.25;;
72517;SDS011;60540;51.178;6.738;2024-02-28T06:07:18;52.17;;;17.77;;
72517;SDS011;60540;51.178;6.738;2024-02-28T06:10:03;48.30;;;16.25;;
72517;SDS011;60540;51.178;6.738;2024-02-28T06:12:48;46.17;;;17.77;;
72517;SDS011;60540;51.178;6.738;2024-02-28T06:15:32;46.72;;;18.17;;
72517;SDS011;60540;51.178;6.738;2024-02-28T06:18:16;45.58;;;16.02;;
72517;SDS011;60540;51.178;6.738;2024-02-28T06:21:00;51.38;;;18.20;;
72517;SDS011;60540;51.178;6.738;2024-02-28T06:23:45;48.60;;;16.02;;
72517;SDS011;60540;51.178;6.738;2024-02-28T06:26:29;48.50;;;18.17;;
72517;SDS011;60540;51.178;6.738;2024-02-28T06:29:15;45.20;;;16.45;;
72517;SDS011;60540;51.178;6.738;2024-02-28T06:31:59;53.97;;;17.90;;
72517;SDS011;60540;51.178;6.738;2024-02-28T06:34:44;50.08;;;16.70;;
72517;SDS011;60540;51.178;6.738;2024-02-28T06:37:28;53.58;;;18.17;;
72517;SDS011;60540;51.178;6.738;2024-02-28T06:40:12;47.97;;;16.30;;
72517;SDS011;60540;51.178;6.738;2024-02-28T06:42:57;56.10;;;18.75;;
72517;SDS011;60540;51.178;6.738;2024-02-28T06:45:41;53.28;;;17.60;;
72517;SDS011;60540;51.178;6.738;2024-02-28T06:48:25;55.10;;;17.13;;
72517;SDS011;60540;51.178;6.738;2024-02-28T06:51:09;52.63;;;17.55;;
72517;SDS011;60540;51.178;6.738;2024-02-28T06:53:53;46.97;;;15.88;;
72517;SDS011;60540;51.178;6.738;2024-02-28T06:56:37;52.03;;;16.67;;
72517;SDS011;60540;51.178;6.738;2024-02-28T06:59:22;45.45;;;15.13;;
72517;SDS011;60540;51.178;6.738;2024-02-28T07:02:06;46.60;;;16.50;;
72517;SDS011;60540;51.178;6.738;2024-02-28T07:04:50;48.13;;;17.50;;
72517;SDS011;60540;51.178;6.738;2024-02-28T07:07:34;52.05;;;17.80;;
72517;SDS011;60540;51.178;6.738;2024-02-28T07:10:18;40.67;;;15.00;;
72517;SDS011;60540;51.178;6.738;2024-02-28T07:13:02;45.53;;;15.77;;
72517;SDS011;60540;51.178;6.738;2024-02-28T07:15:47;45.65;;;18.52;;
72517;SDS011;60540;51.178;6.738;2024-02-28T07:18:32;46.42;;;16.13;;
72517;SDS011;60540;51.178;6.738;2024-02-28T07:21:17;46.70;;;15.88;;
72517;SDS011;60540;51.178;6.738;2024-02-28T07:24:01;50.97;;;17.08;;
72517;SDS011;60540;51.178;6.738;2024-02-28T07:26:46;52.25;;;15.45;;
72517;SDS011;60540;51.178;6.738;2024-02-28T07:29:30;45.85;;;15.80;;
72517;SDS011;60540;51.178;6.738;2024-02-28T07:32:15;51.63;;;18.30;;
72517;SDS011;60540;51.178;6.738;2024-02-28T07:35:00;50.97;;;17.58;;
72517;SDS011;60540;51.178;6.738;2024-02-28T07:37:44;54.85;;;18.48;;
72517;SDS011;60540;51.178;6.738;2024-02-28T07:40:29;48.15;;;17.42;;
72517;SDS011;60540;51.178;6.738;2024-02-28T07:43:13;55.95;;;16.38;;
72517;SDS011;60540;51.178;6.738;2024-02-28T07:45:57;46.42;;;18.25;;
72517;SDS011;60540;51.178;6.738;2024-02-28T07:48:41;47.92;;;15.90;;
72517;SDS011;60540;51.178;6.738;2024-02-28T07:51:26;49.53;;;17.48;;
72517;SDS011;60540;51.178;6.738;2024-02-28T07:54:10;47.72;;;16.45;;
72517;SDS011;60540;51.178;6.738;2024-02-28T07:56:55;47.53;;;17.05;;
72517;SDS011;60540;51.178;6.738;2024-02-28T07:59:40;48.85;;;17.13;;
72517;SDS011;60540;51.178;6.738;2024-02-28T08:02:24;50.15;;;17.40;;
72517;SDS011;60540;51.178;6.738;2024-02-28T08:05:09;50.75;;;16.23;;
72517;SDS011;60540;51.178;6.738;2024-02-28T08:07:54;46.90;;;15.57;;
72517;SDS011;60540;51.178;6.738;2024-02-28T08:10:38;43.92;;;15.52;;
72517;SDS011;60540;51.178;6.738;2024-02-28T08:13:22;43.42;;;13.60;;
72517;SDS011;60540;51.178;6.738;2024-02-28T08:16:07;53.55;;;16.27;;
72517;SDS011;60540;51.178;6.738;2024-02-28T08:18:53;42.90;;;15.73;;
72517;SDS011;60540;51.178;6.738;2024-02-28T08:21:37;55.88;;;16.75;;
72517;SDS011;60540;51.178;6.738;2024-02-28T08:24:21;53.75;;;15.65;;
72517;SDS011;60540;51.178;6.738;2024-02-28T08:27:06;53.67;;;16.95;;
72517;SDS011;60540;51.178;6.738;2024-02-28T08:29:50;38.50;;;17.02;;
72517;SDS011;60540;51.178;6.738;2024-02-28T08:32:35;50.45;;;16.80;;
72517;SDS011;60540;51.178;6.738;2024-02-28T08:35:19;48.53;;;16.83;;
72517;SDS011;60540;51.178;6.738;2024-02-28T08:38:04;44.95;;;15.38;;
72517;SDS011;60540;51.178;6.738;2024-02-28T08:40:48;54.40;;;17.85;;
72517;SDS011;60540;51.178;6.738;2024-02-28T08:43:39;42.65;;;15.60;;
72517;SDS011;60540;51.178;6.738;2024-02-28T08:46:23;47.65;;;16.00;;
72517;SDS011;60540;51.178;6.738;2024-02-28T08:49:08;37.35;;;13.60;;
72517;SDS011;60540;51.178;6.738;2024-02-28T08:51:53;39.95;;;13.10;;
72517;SDS011;60540;51.178;6.738;2024-02-28T08:54:37;39.75;;;13.73;;
72517;SDS011;60540;51.178;6.738;2024-02-28T08:57:23;42.22;;;15.30;;
72517;SDS011;60540;51.178;6.738;2024-02-28T09:00:08;38.80;;;14.05;;
72517;SDS011;60540;51.178;6.738;2024-02-28T09:02:52;41.33;;;15.32;;
72517;SDS011;60540;51.178;6.738;2024-02-28T09:05:37;44.70;;;15.80;;
72517;SDS011;60540;51.178;6.738;2024-02-28T09:08:21;44.33;;;16.77;;
72517;SDS011;60540;51.178;6.738;2024-02-28T09:11:06;37.25;;;15.98;;
72517;SDS011;60540;51.178;6.738;2024-02-28T09:13:50;45.55;;;17.20;;
72517;SDS011;60540;51.178;6.738;2024-02-28T09:16:35;39.03;;;13.60;;
72517;SDS011;60540;51.178;6.738;2024-02-28T09:19:19;36.97;;;15.35;;
72517;SDS011;60540;51.178;6.738;2024-02-28T09:22:03;42.35;;;15.38;;
72517;SDS011;60540;51.178;6.738;2024-02-28T09:24:47;37.97;;;15.43;;
72517;SDS011;60540;51.178;6.738;2024-02-28T09:27:32;39.95;;;15.52;;
72517;SDS011;60540;51.178;6.738;2024-02-28T09:30:17;38.28;;;13.90;;
72517;SDS011;60540;51.178;6.738;2024-02-28T09:33:02;40.83;;;15.98;;
72517;SDS011;60540;51.178;6.738;2024-02-28T09:35:45;40.92;;;14.20;;
72517;SDS011;60540;51.178;6.738;2024-02-28T09:38:30;40.28;;;15.98;;
72517;SDS011;60540;51.178;6.738;2024-02-28T09:44:01;37.67;;;13.60;;
72517;SDS011;60540;51.178;6.738;2024-02-28T09:46:46;36.55;;;12.93;;
72517;SDS011;60540;51.178;6.738;2024-02-28T09:49:32;41.20;;;16.15;;
72517;SDS011;60540;51.178;6.738;2024-02-28T09:52:17;40.30;;;15.05;;
72517;SDS011;60540;51.178;6.738;2024-02-28T09:55:02;38.72;;;14.18;;
72517;SDS011;60540;51.178;6.738;2024-02-28T09:57:50;42.30;;;16.55;;
72517;SDS011;60540;51.178;6.738;2024-02-28T10:00:34;36.25;;;13.82;;
72517;SDS011;60540;51.178;6.738;2024-02-28T10:03:18;46.20;;;16.23;;
72517;SDS011;60540;51.178;6.738;2024-02-28T10:06:03;39.38;;;15.27;;
72517;SDS011;60540;51.178;6.738;2024-02-28T10:08:47;36.47;;;12.80;;
72517;SDS011;60540;51.178;6.738;2024-02-28T10:11:32;34.20;;;13.18;;
72517;SDS011;60540;51.178;6.738;2024-02-28T10:14:20;39.42;;;14.27;;
72517;SDS011;60540;51.178;6.738;2024-02-28T10:17:04;34.67;;;13.00;;
72517;SDS011;60540;51.178;6.738;2024-02-28T10:19:51;36.90;;;14.07;;
72517;SDS011;60540;51.178;6.738;2024-02-28T10:22:36;33.58;;;13.57;;
72517;SDS011;60540;51.178;6.738;2024-02-28T10:25:20;37.42;;;16.90;;
72517;SDS011;60540;51.178;6.738;2024-02-28T10:28:05;34.47;;;13.65;;
72517;SDS011;60540;51.178;6.738;2024-02-28T10:30:49;32.92;;;13.90;;
72517;SDS011;60540;51.178;6.738;2024-02-28T10:33:33;32.45;;;14.88;;
72517;SDS011;60540;51.178;6.738;2024-02-28T10:36:19;32.33;;;14.52;;
72517;SDS011;60540;51.178;6.738;2024-02-28T10:39:04;36.42;;;14.88;;
72517;SDS011;60540;51.178;6.738;2024-02-28T10:41:49;31.73;;;13.82;;
72517;SDS011;60540;51.178;6.738;2024-02-28T10:44:34;29.98;;;12.65;;
72517;SDS011;60540;51.178;6.738;2024-02-28T10:47:19;31.52;;;13.23;;
72517;SDS011;60540;51.178;6.738;2024-02-28T10:50:03;27.98;;;11.52;;
72517;SDS011;60540;51.178;6.738;2024-02-28T10:52:48;29.42;;;11.10;;
72517;SDS011;60540;51.178;6.738;2024-02-28T10:55:35;30.67;;;12.40;;
72517;SDS011;60540;51.178;6.738;2024-02-28T10:58:24;26.83;;;11.05;;
72517;SDS011;60540;51.178;6.738;2024-02-28T11:01:09;32.50;;;12.60;;
72517;SDS011;60540;51.178;6.738;2024-02-28T11:03:55;30.85;;;13.07;;
72517;SDS011;60540;51.178;6.738;2024-02-28T11:06:53;31.50;;;12.07;;
72517;SDS011;60540;51.178;6.738;2024-02-28T11:09:40;32.67;;;12.45;;
72517;SDS011;60540;51.178;6.738;2024-02-28T11:12:25;27.80;;;11.93;;
72517;SDS011;60540;51.178;6.738;2024-02-28T11:15:16;36.05;;;12.90;;
72517;SDS011;60540;51.178;6.738;2024-02-28T11:18:07;28.17;;;12.00;;
72517;SDS011;60540;51.178;6.738;2024-02-28T11:20:55;28.88;;;12.05;;
72517;SDS011;60540;51.178;6.738;2024-02-28T11:23:40;28.77;;;12.25;;
72517;SDS011;60540;51.178;6.738;2024-02-28T11:26:24;28.08;;;11.63;;
72517;SDS011;60540;51.178;6.738;2024-02-28T11:29:09;28.65;;;11.95;;
72517;SDS011;60540;51.178;6.738;2024-02-28T11:31:53;26.38;;;11.27;;
72517;SDS011;60540;51.178;6.738;2024-02-28T11:34:38;22.83;;;9.77;;
72517;SDS011;60540;51.178;6.738;2024-02-28T11:37:24;22.48;;;10.48;;
72517;SDS011;60540;51.178;6.738;2024-02-28T11:40:08;24.88;;;11.25;;
72517;SDS011;60540;51.178;6.738;2024-02-28T11:42:56;23.60;;;9.38;;
72517;SDS011;60540;51.178;6.738;2024-02-28T11:45:42;23.45;;;10.75;;
72517;SDS011;60540;51.178;6.738;2024-02-28T11:48:27;24.30;;;10.43;;
72517;SDS011;60540;51.178;6.738;2024-02-28T11:51:12;23.92;;;11.23;;
72517;SDS011;60540;51.178;6.738;2024-02-28T11:53:56;26.30;;;11.48;;
72517;SDS011;60540;51.178;6.738;2024-02-28T11:56:41;24.17;;;9.70;;
72517;SDS011;60540;51.178;6.738;2024-02-28T11:59:25;24.23;;;11.70;;
72517;SDS011;60540;51.178;6.738;2024-02-28T12:02:13;22.83;;;9.57;;
72517;SDS011;60540;51.178;6.738;2024-02-28T12:05:01;19.60;;;8.45;;
72517;SDS011;60540;51.178;6.738;2024-02-28T12:07:46;20.95;;;8.80;;
72517;SDS011;60540;51.178;6.738;2024-02-28T12:10:31;20.05;;;8.75;;
72517;SDS011;60540;51.178;6.738;2024-02-28T12:16:03;24.38;;;10.70;;
72517;SDS011;60540;51.178;6.738;2024-02-28T12:18:48;19.55;;;9.15;;
72517;SDS011;60540;51.178;6.738;2024-02-28T12:21:32;21.27;;;10.07;;
72517;SDS011;60540;51.178;6.738;2024-02-28T12:24:16;22.33;;;10.68;;
72517;SDS011;60540;51.178;6.738;2024-02-28T12:27:00;22.48;;;10.05;;
72517;SDS011;60540;51.178;6.738;2024-02-28T12:29:45;26.52;;;11.88;;
72517;SDS011;60540;51.178;6.738;2024-02-28T12:32:29;23.05;;;11.10;;
72517;SDS011;60540;51.178;6.738;2024-02-28T12:35:13;23.50;;;10.95;;
72517;SDS011;60540;51.178;6.738;2024-02-28T12:37:57;25.00;;;10.80;;
72517;SDS011;60540;51.178;6.738;2024-02-28T12:40:42;20.00;;;8.38;;
72517;SDS011;60540;51.178;6.738;2024-02-28T12:43:26;19.67;;;8.38;;
72517;SDS011;60540;51.178;6.738;2024-02-28T12:46:12;24.75;;;11.13;;
72517;SDS011;60540;51.178;6.738;2024-02-28T12:48:56;21.13;;;9.57;;
72517;SDS011;60540;51.178;6.738;2024-02-28T12:51:42;23.48;;;10.77;;
72517;SDS011;60540;51.178;6.738;2024-02-28T12:54:27;14.88;;;7.07;;
72517;SDS011;60540;51.178;6.738;2024-02-28T12:57:12;20.02;;;9.25;;
72517;SDS011;60540;51.178;6.738;2024-02-28T13:00:00;23.23;;;10.10;;
72517;SDS011;60540;51.178;6.738;2024-02-28T13:02:45;22.60;;;9.80;;
72517;SDS011;60540;51.178;6.738;2024-02-28T13:05:30;20.77;;;10.15;;
72517;SDS011;60540;51.178;6.738;2024-02-28T13:08:15;22.70;;;9.90;;
72517;SDS011;60540;51.178;6.738;2024-02-28T13:10:59;18.65;;;8.52;;
72517;SDS011;60540;51.178;6.738;2024-02-28T13:13:44;17.05;;;7.85;;
72517;SDS011;60540;51.178;6.738;2024-02-28T13:16:28;18.88;;;8.65;;
72517;SDS011;60540;51.178;6.738;2024-02-28T13:19:12;19.10;;;8.95;;
72517;SDS011;60540;51.178;6.738;2024-02-28T13:21:57;20.33;;;9.07;;
72517;SDS011;60540;51.178;6.738;2024-02-28T13:24:42;18.20;;;8.82;;
72517;SDS011;60540;51.178;6.738;2024-02-28T13:27:26;18.70;;;8.43;;
72517;SDS011;60540;51.178;6.738;2024-02-28T13:30:11;19.35;;;8.68;;
72517;SDS011;60540;51.178;6.738;2024-02-28T13:32:55;19.30;;;8.68;;
72517;SDS011;60540;51.178;6.738;2024-02-28T13:35:41;19.25;;;9.27;;
72517;SDS011;60540;51.178;6.738;2024-02-28T13:38:25;20.05;;;8.43;;
72517;SDS011;60540;51.178;6.738;2024-02-28T13:41:09;14.88;;;7.13;;
72517;SDS011;60540;51.178;6.738;2024-02-28T13:43:54;17.88;;;8.05;;
72517;SDS011;60540;51.178;6.738;2024-02-28T13:46:38;17.25;;;8.05;;
72517;SDS011;60540;51.178;6.738;2024-02-28T13:49:25;16.50;;;8.25;;
72517;SDS011;60540;51.178;6.738;2024-02-28T13:52:10;20.55;;;8.43;;
72517;SDS011;60540;51.178;6.738;2024-02-28T13:54:54;16.13;;;7.45;;
72517;SDS011;60540;51.178;6.738;2024-02-28T13:57:38;18.35;;;7.35;;
72517;SDS011;60540;51.178;6.738;2024-02-28T14:00:22;16.20;;;6.65;;
72517;SDS011;60540;51.178;6.738;2024-02-28T14:03:07;19.45;;;8.35;;
72517;SDS011;60540;51.178;6.738;2024-02-28T14:05:51;18.27;;;7.57;;
72517;SDS011;60540;51.178;6.738;2024-02-28T14:08:37;17.95;;;7.50;;
72517;SDS011;60540;51.178;6.738;2024-02-28T14:11:22;16.52;;;6.90;;
72517;SDS011;60540;51.178;6.738;2024-02-28T14:14:07;15.82;;;7.30;;
72517;SDS011;60540;51.178;6.738;2024-02-28T14:16:51;16.75;;;6.88;;
72517;SDS011;60540;51.178;6.738;2024-02-28T14:19:35;16.80;;;7.25;;
72517;SDS011;60540;51.178;6.738;2024-02-28T14:22:19;17.13;;;7.32;;
72517;SDS011;60540;51.178;6.738;2024-02-28T14:25:03;15.48;;;7.38;;
72517;SDS011;60540;51.178;6.738;2024-02-28T14:27:48;16.25;;;7.05;;
72517;SDS011;60540;51.178;6.738;2024-02-28T14:30:32;15.13;;;6.93;;
72517;SDS011;60540;51.178;6.738;2024-02-28T14:33:17;17.75;;;7.55;;
72517;SDS011;60540;51.178;6.738;2024-02-28T14:36:02;12.55;;;5.97;;
72517;SDS011;60540;51.178;6.738;2024-02-28T14:38:50;14.20;;;6.95;;
72517;SDS011;60540;51.178;6.738;2024-02-28T14:41:34;16.13;;;7.22;;
72517;SDS011;60540;51.178;6.738;2024-02-28T14:44:18;15.02;;;7.05;;
72517;SDS011;60540;51.178;6.738;2024-02-28T14:47:03;14.70;;;7.30;;
72517;SDS011;60540;51.178;6.738;2024-02-28T14:49:48;14.60;;;6.65;;
72517;SDS011;60540;51.178;6.738;2024-02-28T14:52:33;14.15;;;5.97;;
72517;SDS011;60540;51.178;6.738;2024-02-28T14:55:17;16.40;;;6.35;;
72517;SDS011;60540;51.178;6.738;2024-02-28T14:58:02;15.45;;;7.13;;
72517;SDS011;60540;51.178;6.738;2024-02-28T15:00:46;15.60;;;6.72;;
72517;SDS011;60540;51.178;6.738;2024-02-28T15:03:32;13.95;;;6.75;;
72517;SDS011;60540;51.178;6.738;2024-02-28T15:06:16;13.85;;;5.82;;
72517;SDS011;60540;51.178;6.738;2024-02-28T15:09:01;16.73;;;6.38;;
72517;SDS011;60540;51.178;6.738;2024-02-28T15:11:49;15.60;;;6.88;;
72517;SDS011;60540;51.178;6.738;2024-02-28T15:14:33;12.73;;;6.05;;
72517;SDS011;60540;51.178;6.738;2024-02-28T15:17:17;15.63;;;6.38;;
72517;SDS011;60540;51.178;6.738;2024-02-28T15:20:02;13.90;;;5.97;;
72517;SDS011;60540;51.178;6.738;2024-02-28T15:22:47;12.80;;;5.97;;
72517;SDS011;60540;51.178;6.738;2024-02-28T15:25:31;14.82;;;6.25;;
72517;SDS011;60540;51.178;6.738;2024-02-28T15:28:15;14.07;;;6.50;;
72517;SDS011;60540;51.178;6.738;2024-02-28T15:31:01;14.57;;;6.05;;
72517;SDS011;60540;51.178;6.738;2024-02-28T15:33:45;18.50;;;7.05;;
72517;SDS011;60540;51.178;6.738;2024-02-28T15:36:29;16.23;;;6.28;;
72517;SDS011;60540;51.178;6.738;2024-02-28T15:39:13;12.98;;;6.53;;
72517;SDS011;60540;51.178;6.738;2024-02-28T15:41:59;14.20;;;6.20;;
72517;SDS011;60540;51.178;6.738;2024-02-28T15:44:44;10.75;;;4.97;;
72517;SDS011;60540;51.178;6.738;2024-02-28T15:47:29;12.15;;;5.40;;
72517;SDS011;60540;51.178;6.738;2024-02-28T15:50:13;15.18;;;6.20;;
72517;SDS011;60540;51.178;6.738;2024-02-28T15:52:57;11.63;;;5.40;;
72517;SDS011;60540;51.178;6.738;2024-02-28T15:55:42;14.05;;;6.50;;
72517;SDS011;60540;51.178;6.738;2024-02-28T16:01:12;11.48;;;5.40;;
72517;SDS011;60540;51.178;6.738;2024-02-28T16:03:57;18.08;;;7.15;;
72517;SDS011;60540;51.178;6.738;2024-02-28T16:06:41;15.07;;;5.70;;
72517;SDS011;60540;51.178;6.738;2024-02-28T16:09:26;12.20;;;5.22;;
72517;SDS011;60540;51.178;6.738;2024-02-28T16:12:10;16.00;;;6.43;;
72517;SDS011;60540;51.178;6.738;2024-02-28T16:14:56;16.17;;;6.50;;
72517;SDS011;60540;51.178;6.738;2024-02-28T16:17:41;15.07;;;6.50;;
72517;SDS011;60540;51.178;6.738;2024-02-28T16:20:25;14.70;;;6.70;;